createdAt,value
2018-07-07T00:00:58.307Z,0.00
2018-07-07T00:01:58.299Z,0.00
2018-07-07T00:02:58.308Z,0.00
2018-07-07T00:03:58.274Z,0.00
2018-07-07T00:04:58.263Z,0.00
2018-07-07T00:05:58.259Z,0.00
2018-07-07T00:06:58.241Z,0.00
2018-07-07T00:07:58.254Z,0.00
2018-07-07T00:08:58.219Z,0.00
2018-07-07T00:09:58.210Z,0.00
2018-07-07T00:10:58.198Z,0.00
2018-07-07T00:11:58.187Z,0.00
2018-07-07T00:12:58.197Z,0.00
2018-07-07T00:13:58.164Z,0.00
2018-07-07T00:14:58.154Z,0.00
2018-07-07T00:15:58.143Z,0.00
2018-07-07T00:16:58.131Z,0.00
2018-07-07T00:17:58.143Z,0.00
2018-07-07T00:18:58.112Z,0.00
2018-07-07T00:19:58.101Z,0.00
2018-07-07T00:20:58.092Z,0.00
2018-07-07T00:21:58.075Z,0.00
2018-07-07T00:22:58.095Z,0.00
2018-07-07T00:23:58.054Z,0.00
2018-07-07T00:24:58.043Z,0.00
2018-07-07T00:25:58.032Z,0.00
2018-07-07T00:26:58.023Z,0.00
2018-07-07T00:27:58.033Z,0.00
2018-07-07T00:28:57.998Z,0.00
2018-07-07T00:29:57.988Z,0.00
2018-07-07T00:30:57.977Z,0.00
2018-07-07T00:31:57.966Z,0.00
2018-07-07T00:32:57.979Z,0.00
2018-07-07T00:33:57.944Z,0.00
2018-07-07T00:34:57.933Z,0.00
2018-07-07T00:35:57.921Z,0.00
2018-07-07T00:36:57.911Z,0.00
2018-07-07T00:37:57.924Z,0.00
2018-07-07T00:38:57.888Z,0.00
2018-07-07T00:39:57.877Z,0.00
2018-07-07T00:40:57.868Z,0.00
2018-07-07T00:41:57.856Z,0.00
2018-07-07T00:42:57.867Z,0.00
2018-07-07T00:43:57.833Z,0.00
2018-07-07T00:44:57.825Z,0.00
2018-07-07T00:45:57.813Z,0.00
2018-07-07T00:46:57.799Z,0.00
2018-07-07T00:47:57.814Z,0.00
2018-07-07T00:48:57.778Z,0.00
2018-07-07T00:49:57.767Z,0.00
2018-07-07T00:50:57.757Z,0.00
2018-07-07T00:51:57.746Z,0.00
2018-07-07T00:52:57.765Z,0.00
2018-07-07T00:53:57.725Z,0.00
2018-07-07T00:54:57.712Z,0.00
2018-07-07T00:55:57.701Z,0.00
2018-07-07T00:56:57.690Z,0.00
2018-07-07T00:57:57.702Z,0.00
2018-07-07T00:58:57.668Z,0.00
2018-07-07T00:59:57.657Z,0.00
2018-07-07T01:00:57.646Z,0.00
2018-07-07T01:01:57.638Z,0.00
2018-07-07T01:02:57.649Z,0.00
2018-07-07T01:03:57.613Z,0.00
2018-07-07T01:04:57.602Z,0.00
2018-07-07T01:05:57.592Z,0.00
2018-07-07T01:06:57.582Z,0.00
2018-07-07T01:07:57.592Z,0.00
2018-07-07T01:08:57.561Z,0.00
2018-07-07T01:09:57.547Z,0.00
2018-07-07T01:10:57.537Z,0.00
2018-07-07T01:11:57.525Z,0.00
2018-07-07T01:12:57.540Z,0.00
2018-07-07T01:13:57.503Z,0.00
2018-07-07T01:14:57.501Z,0.00
2018-07-07T01:15:57.484Z,0.00
2018-07-07T01:16:57.470Z,0.00
2018-07-07T01:17:57.484Z,0.00
2018-07-07T01:18:57.450Z,0.00
2018-07-07T01:19:57.437Z,0.00
2018-07-07T01:20:57.428Z,0.00
2018-07-07T01:21:57.415Z,0.00
2018-07-07T01:22:57.407Z,0.00
2018-07-07T01:23:57.417Z,0.00
2018-07-07T01:24:57.382Z,0.00
2018-07-07T01:25:57.371Z,0.00
2018-07-07T01:26:57.360Z,0.00
2018-07-07T01:27:57.350Z,0.00
2018-07-07T01:28:57.363Z,0.00
2018-07-07T01:29:57.327Z,0.00
2018-07-07T01:30:57.316Z,0.00
2018-07-07T01:31:57.305Z,0.00
2018-07-07T01:32:57.295Z,0.00
2018-07-07T01:33:57.309Z,0.00
2018-07-07T01:34:57.273Z,0.00
2018-07-07T01:35:57.261Z,0.00
2018-07-07T01:36:57.252Z,0.00
2018-07-07T01:37:57.242Z,0.00
2018-07-07T01:38:57.252Z,0.00
2018-07-07T01:39:57.218Z,0.00
2018-07-07T01:40:57.208Z,0.00
2018-07-07T01:41:57.197Z,0.00
2018-07-07T01:42:57.186Z,0.00
2018-07-07T01:43:57.197Z,0.00
2018-07-07T01:44:57.165Z,0.00
2018-07-07T01:45:57.151Z,0.00
2018-07-07T01:46:57.140Z,0.00
2018-07-07T01:47:57.130Z,0.00
2018-07-07T01:48:57.141Z,0.00
2018-07-07T01:49:57.109Z,0.00
2018-07-07T01:50:57.097Z,0.00
2018-07-07T01:51:57.087Z,0.00
2018-07-07T01:52:57.074Z,0.00
2018-07-07T01:53:57.089Z,0.00
2018-07-07T01:54:57.053Z,0.00
2018-07-07T01:55:57.042Z,0.00
2018-07-07T01:56:57.030Z,0.00
2018-07-07T01:57:57.019Z,0.00
2018-07-07T01:58:57.033Z,0.00
2018-07-07T01:59:56.997Z,0.00
2018-07-07T02:00:56.986Z,0.00
2018-07-07T02:01:56.976Z,0.00
2018-07-07T02:02:56.965Z,0.00
2018-07-07T02:03:56.978Z,0.00
2018-07-07T02:04:56.942Z,0.00
2018-07-07T02:05:56.932Z,0.00
2018-07-07T02:06:56.920Z,0.00
2018-07-07T02:07:56.912Z,0.00
2018-07-07T02:08:56.923Z,0.00
2018-07-07T02:09:56.887Z,0.00
2018-07-07T02:10:56.879Z,0.00
2018-07-07T02:11:56.868Z,0.00
2018-07-07T02:12:56.856Z,0.00
2018-07-07T02:13:56.868Z,0.00
2018-07-07T02:14:56.832Z,0.00
2018-07-07T02:15:56.823Z,0.00
2018-07-07T02:16:56.811Z,0.00
2018-07-07T02:17:56.799Z,0.00
2018-07-07T02:18:56.813Z,0.00
2018-07-07T02:19:56.777Z,0.00
2018-07-07T02:20:56.767Z,0.00
2018-07-07T02:21:56.755Z,0.00
2018-07-07T02:22:56.744Z,0.00
2018-07-07T02:23:56.762Z,0.00
2018-07-07T02:24:56.724Z,0.00
2018-07-07T02:25:56.723Z,0.00
2018-07-07T02:26:56.701Z,0.00
2018-07-07T02:27:56.689Z,0.00
2018-07-07T02:28:56.705Z,0.00
2018-07-07T02:29:56.669Z,0.00
2018-07-07T02:30:56.661Z,0.00
2018-07-07T02:31:56.649Z,0.00
2018-07-07T02:32:56.635Z,0.00
2018-07-07T02:33:56.648Z,0.00
2018-07-07T02:34:56.612Z,0.00
2018-07-07T02:35:56.601Z,0.00
2018-07-07T02:36:56.590Z,0.00
2018-07-07T02:37:56.582Z,0.00
2018-07-07T02:38:56.593Z,0.00
2018-07-07T02:39:56.559Z,0.00
2018-07-07T02:40:56.549Z,0.00
2018-07-07T02:41:56.540Z,0.00
2018-07-07T02:42:56.525Z,0.00
2018-07-07T02:43:56.538Z,0.00
2018-07-07T02:44:56.502Z,0.00
2018-07-07T02:45:56.492Z,0.00
2018-07-07T02:46:56.483Z,0.00
2018-07-07T02:47:56.470Z,0.00
2018-07-07T02:48:56.485Z,0.00
2018-07-07T02:49:56.448Z,0.00
2018-07-07T02:50:56.437Z,0.00
2018-07-07T02:51:56.424Z,0.00
2018-07-07T02:52:56.414Z,0.00
2018-07-07T02:53:56.426Z,0.00
2018-07-07T02:54:56.392Z,0.00
2018-07-07T02:55:56.380Z,0.00
2018-07-07T02:56:56.371Z,4.00
2018-07-07T02:57:56.359Z,4.00
2018-07-07T02:58:56.372Z,4.00
2018-07-07T02:59:56.338Z,4.00
2018-07-07T03:00:56.328Z,4.00
2018-07-07T03:01:56.326Z,4.00
2018-07-07T03:02:56.304Z,4.00
2018-07-07T03:03:56.314Z,4.00
2018-07-07T03:04:56.282Z,4.00
2018-07-07T03:05:56.273Z,8.00
2018-07-07T03:06:56.260Z,8.00
2018-07-07T03:07:56.249Z,8.00
2018-07-07T03:08:56.262Z,8.00
2018-07-07T03:09:56.226Z,12.00
2018-07-07T03:10:56.216Z,16.00
2018-07-07T03:11:56.209Z,16.00
2018-07-07T03:12:56.194Z,20.00
2018-07-07T03:13:56.185Z,20.00
2018-07-07T03:14:56.196Z,20.00
2018-07-07T03:15:56.162Z,24.00
2018-07-07T03:16:56.150Z,28.00
2018-07-07T03:17:56.140Z,32.00
2018-07-07T03:18:56.132Z,32.00
2018-07-07T03:19:56.143Z,36.00
2018-07-07T03:20:56.106Z,44.00
2018-07-07T03:21:56.096Z,44.00
2018-07-07T03:22:56.085Z,48.00
2018-07-07T03:23:56.075Z,52.00
2018-07-07T03:24:56.086Z,56.00
2018-07-07T03:25:56.051Z,56.00
2018-07-07T03:26:56.041Z,64.00
2018-07-07T03:27:56.030Z,68.00
2018-07-07T03:28:56.018Z,68.00
2018-07-07T03:29:56.030Z,76.00
2018-07-07T03:30:55.995Z,80.00
2018-07-07T03:31:55.985Z,88.00
2018-07-07T03:32:55.977Z,92.00
2018-07-07T03:33:55.966Z,96.00
2018-07-07T03:34:55.974Z,104.00
2018-07-07T03:35:55.941Z,108.00
2018-07-07T03:36:55.932Z,116.00
2018-07-07T03:37:55.923Z,124.00
2018-07-07T03:38:55.907Z,132.00
2018-07-07T03:39:55.920Z,140.00
2018-07-07T03:40:55.884Z,148.00
2018-07-07T03:41:55.874Z,156.00
2018-07-07T03:42:55.862Z,164.00
2018-07-07T03:43:55.852Z,176.00
2018-07-07T03:44:55.864Z,188.00
2018-07-07T03:45:55.831Z,196.00
2018-07-07T03:46:55.820Z,212.00
2018-07-07T03:47:55.809Z,228.00
2018-07-07T03:48:55.797Z,240.00
2018-07-07T03:49:55.810Z,248.00
2018-07-07T03:50:55.777Z,260.00
2018-07-07T03:51:55.763Z,272.00
2018-07-07T03:52:55.754Z,288.00
2018-07-07T03:53:55.742Z,296.00
2018-07-07T03:54:55.757Z,312.00
2018-07-07T03:55:55.722Z,324.00
2018-07-07T03:56:55.709Z,336.00
2018-07-07T03:57:55.698Z,352.00
2018-07-07T03:58:55.799Z,372.00
2018-07-07T03:59:55.699Z,380.00
2018-07-07T04:00:55.665Z,388.00
2018-07-07T04:01:55.653Z,400.00
2018-07-07T04:02:55.695Z,412.00
2018-07-07T04:03:55.635Z,424.00
2018-07-07T04:04:55.643Z,432.00
2018-07-07T04:05:55.609Z,448.00
2018-07-07T04:06:55.598Z,468.00
2018-07-07T04:07:55.588Z,484.00
2018-07-07T04:08:55.578Z,496.00
2018-07-07T04:09:55.590Z,512.00
2018-07-07T04:10:55.555Z,520.00
2018-07-07T04:11:55.592Z,528.00
2018-07-07T04:12:55.533Z,536.00
2018-07-07T04:13:55.523Z,548.00
2018-07-07T04:14:55.534Z,552.00
2018-07-07T04:15:55.500Z,560.00
2018-07-07T04:16:55.489Z,568.00
2018-07-07T04:17:55.479Z,572.00
2018-07-07T04:18:55.475Z,580.00
2018-07-07T04:19:55.481Z,588.00
2018-07-07T04:20:55.445Z,592.00
2018-07-07T04:21:55.433Z,596.00
2018-07-07T04:22:55.430Z,604.00
2018-07-07T04:23:55.412Z,616.00
2018-07-07T04:24:55.424Z,628.00
2018-07-07T04:25:55.391Z,632.00
2018-07-07T04:26:55.380Z,640.00
2018-07-07T04:27:55.368Z,648.00
2018-07-07T04:28:55.358Z,656.00
2018-07-07T04:29:55.368Z,668.00
2018-07-07T04:30:55.334Z,692.00
2018-07-07T04:31:55.324Z,712.00
2018-07-07T04:32:55.312Z,732.00
2018-07-07T04:33:55.302Z,760.00
2018-07-07T04:34:55.314Z,792.00
2018-07-07T04:35:55.283Z,832.00
2018-07-07T04:36:55.269Z,864.00
2018-07-07T04:37:55.258Z,892.00
2018-07-07T04:38:55.247Z,916.00
2018-07-07T04:39:55.258Z,940.00
2018-07-07T04:40:55.224Z,960.00
2018-07-07T04:41:55.213Z,984.00
2018-07-07T04:42:55.202Z,1016.00
2018-07-07T04:43:55.191Z,1060.00
2018-07-07T04:44:55.182Z,1100.00
2018-07-07T04:45:55.215Z,1120.00
2018-07-07T04:46:55.159Z,1124.00
2018-07-07T04:47:55.148Z,1120.00
2018-07-07T04:48:55.136Z,1116.00
2018-07-07T04:49:55.149Z,1124.00
2018-07-07T04:50:55.114Z,1136.00
2018-07-07T04:51:55.104Z,1164.00
2018-07-07T04:52:55.091Z,1220.00
2018-07-07T04:53:55.081Z,1256.00
2018-07-07T04:54:55.071Z,1256.00
2018-07-07T04:55:55.083Z,1256.00
2018-07-07T04:56:55.048Z,1264.00
2018-07-07T04:57:55.038Z,1264.00
2018-07-07T04:58:55.025Z,1272.00
2018-07-07T04:59:55.017Z,1276.00
2018-07-07T05:00:55.027Z,1280.00
2018-07-07T05:01:54.993Z,1280.00
2018-07-07T05:02:54.981Z,1280.00
2018-07-07T05:03:54.970Z,1308.00
2018-07-07T05:04:54.960Z,1332.00
2018-07-07T05:05:54.972Z,1396.00
2018-07-07T05:06:54.937Z,1516.00
2018-07-07T05:07:54.931Z,1616.00
2018-07-07T05:08:54.915Z,1664.00
2018-07-07T05:09:54.904Z,1708.00
2018-07-07T05:10:54.945Z,1768.00
2018-07-07T05:11:54.882Z,1828.00
2018-07-07T05:12:54.871Z,1920.00
2018-07-07T05:13:54.860Z,2000.00
2018-07-07T05:14:54.850Z,2032.00
2018-07-07T05:15:54.863Z,2080.00
2018-07-07T05:16:54.831Z,2032.00
2018-07-07T05:17:54.817Z,2004.00
2018-07-07T05:18:54.806Z,2032.00
2018-07-07T05:19:54.794Z,2068.00
2018-07-07T05:20:54.807Z,2012.00
2018-07-07T05:21:54.773Z,1948.00
2018-07-07T05:22:54.763Z,1916.00
2018-07-07T05:23:54.751Z,1864.00
2018-07-07T05:24:54.742Z,1868.00
2018-07-07T05:25:54.754Z,1836.00
2018-07-07T05:26:54.717Z,1788.00
2018-07-07T05:27:54.708Z,1768.00
2018-07-07T05:28:54.700Z,1748.00
2018-07-07T05:29:54.684Z,1744.00
2018-07-07T05:30:54.696Z,1732.00
2018-07-07T05:31:54.757Z,1748.00
2018-07-07T05:32:54.650Z,1812.00
2018-07-07T05:33:54.642Z,1824.00
2018-07-07T05:34:54.630Z,1840.00
2018-07-07T05:35:54.663Z,1840.00
2018-07-07T05:36:54.607Z,1828.00
2018-07-07T05:37:54.596Z,1892.00
2018-07-07T05:38:54.584Z,1828.00
2018-07-07T05:39:54.574Z,1784.00
2018-07-07T05:40:54.586Z,1708.00
2018-07-07T05:41:54.552Z,1644.00
2018-07-07T05:42:54.542Z,1600.00
2018-07-07T05:43:54.532Z,1612.00
2018-07-07T05:44:54.519Z,1636.00
2018-07-07T05:45:54.531Z,1640.00
2018-07-07T05:46:54.496Z,1652.00
2018-07-07T05:47:54.490Z,1672.00
2018-07-07T05:48:54.476Z,1700.00
2018-07-07T05:49:54.483Z,1728.00
2018-07-07T05:50:54.476Z,1764.00
2018-07-07T05:51:54.441Z,1700.00
2018-07-07T05:52:54.433Z,1796.00
2018-07-07T05:53:54.420Z,1816.00
2018-07-07T05:54:54.409Z,1480.00
2018-07-07T05:55:55.349Z,1480.00
2018-07-07T05:56:54.386Z,1488.00
2018-07-07T05:57:54.376Z,1320.00
2018-07-07T05:58:54.366Z,1460.00
2018-07-07T05:59:54.354Z,1572.00
2018-07-07T06:00:54.365Z,1664.00
2018-07-07T06:01:54.331Z,1672.00
2018-07-07T06:02:54.321Z,1684.00
2018-07-07T06:03:54.309Z,1672.00
2018-07-07T06:04:54.298Z,1600.00
2018-07-07T06:05:54.310Z,1752.00
2018-07-07T06:06:54.277Z,1644.00
2018-07-07T06:07:54.265Z,1804.00
2018-07-07T06:08:54.254Z,1816.00
2018-07-07T06:09:54.244Z,1824.00
2018-07-07T06:10:54.255Z,1840.00
2018-07-07T06:11:54.221Z,1860.00
2018-07-07T06:12:54.214Z,1848.00
2018-07-07T06:13:54.208Z,1840.00
2018-07-07T06:14:54.196Z,2268.00
2018-07-07T06:15:54.206Z,2072.00
2018-07-07T06:16:54.172Z,2060.00
2018-07-07T06:17:54.156Z,1832.00
2018-07-07T06:18:54.167Z,1836.00
2018-07-07T06:19:54.139Z,2008.00
2018-07-07T06:20:54.147Z,2140.00
2018-07-07T06:21:54.120Z,2148.00
2018-07-07T06:22:54.105Z,2208.00
2018-07-07T06:23:54.095Z,2276.00
2018-07-07T06:24:54.081Z,2280.00
2018-07-07T06:25:54.109Z,2224.00
2018-07-07T06:26:54.156Z,2168.00
2018-07-07T06:27:54.052Z,2192.00
2018-07-07T06:28:54.037Z,2248.00
2018-07-07T06:29:54.035Z,2568.00
2018-07-07T06:30:54.015Z,2336.00
2018-07-07T06:31:54.034Z,2364.00
2018-07-07T06:32:53.994Z,2424.00
2018-07-07T06:33:53.980Z,2372.00
2018-07-07T06:34:53.970Z,2336.00
2018-07-07T06:35:53.964Z,2392.00
2018-07-07T06:36:53.989Z,2412.00
2018-07-07T06:37:53.940Z,2360.00
2018-07-07T06:38:53.933Z,2556.00
2018-07-07T06:39:53.917Z,2940.00
2018-07-07T06:40:53.905Z,3004.00
2018-07-07T06:41:53.916Z,3104.00
2018-07-07T06:42:53.888Z,3380.00
2018-07-07T06:43:53.875Z,3544.00
2018-07-07T06:44:53.869Z,3768.00
2018-07-07T06:45:53.852Z,3856.00
2018-07-07T06:46:53.861Z,3936.00
2018-07-07T06:47:53.831Z,3800.00
2018-07-07T06:48:53.815Z,3808.00
2018-07-07T06:49:53.806Z,3764.00
2018-07-07T06:50:53.803Z,3648.00
2018-07-07T06:51:53.807Z,4040.00
2018-07-07T06:52:53.775Z,3576.00
2018-07-07T06:53:53.860Z,3296.00
2018-07-07T06:54:53.752Z,3420.00
2018-07-07T06:55:53.739Z,3312.00
2018-07-07T06:56:55.565Z,3712.00
2018-07-07T06:57:53.725Z,3804.00
2018-07-07T06:58:53.719Z,3484.00
2018-07-07T06:59:53.755Z,3480.00
2018-07-07T07:00:53.692Z,3392.00
2018-07-07T07:01:53.696Z,3472.00
2018-07-07T07:02:53.663Z,3556.00
2018-07-07T07:03:53.652Z,3640.00
2018-07-07T07:04:53.642Z,3756.00
2018-07-07T07:05:53.634Z,4064.00
2018-07-07T07:06:53.646Z,3984.00
2018-07-07T07:07:53.607Z,4056.00
2018-07-07T07:08:53.595Z,4132.00
2018-07-07T07:09:53.584Z,4280.00
2018-07-07T07:10:53.574Z,4372.00
2018-07-07T07:11:53.606Z,4452.00
2018-07-07T07:12:53.554Z,4584.00
2018-07-07T07:13:53.545Z,4616.00
2018-07-07T07:14:53.535Z,4644.00
2018-07-07T07:15:53.522Z,4656.00
2018-07-07T07:16:53.533Z,4364.00
2018-07-07T07:17:53.500Z,4240.00
2018-07-07T07:18:53.484Z,4172.00
2018-07-07T07:19:53.486Z,4088.00
2018-07-07T07:20:53.462Z,4020.00
2018-07-07T07:21:53.480Z,3848.00
2018-07-07T07:22:53.448Z,3680.00
2018-07-07T07:23:53.433Z,3612.00
2018-07-07T07:24:53.419Z,3844.00
2018-07-07T07:25:53.413Z,3664.00
2018-07-07T07:26:53.420Z,3536.00
2018-07-07T07:27:53.385Z,3176.00
2018-07-07T07:28:53.375Z,3060.00
2018-07-07T07:29:53.365Z,3120.00
2018-07-07T07:30:53.373Z,3208.00
2018-07-07T07:31:53.373Z,3076.00
2018-07-07T07:32:53.339Z,2668.00
2018-07-07T07:33:53.320Z,3088.00
2018-07-07T07:34:53.311Z,2828.00
2018-07-07T07:35:53.302Z,3012.00
2018-07-07T07:36:53.314Z,3012.00
2018-07-07T07:37:53.275Z,2976.00
2018-07-07T07:38:53.266Z,3008.00
2018-07-07T07:39:53.253Z,3032.00
2018-07-07T07:40:53.241Z,3040.00
2018-07-07T07:41:53.256Z,3024.00
2018-07-07T07:42:53.220Z,3052.00
2018-07-07T07:43:53.210Z,2972.00
2018-07-07T07:44:53.196Z,2988.00
2018-07-07T07:45:53.189Z,2940.00
2018-07-07T07:46:53.206Z,2932.00
2018-07-07T07:47:53.170Z,3012.00
2018-07-07T07:48:53.159Z,2992.00
2018-07-07T07:49:53.196Z,2980.00
2018-07-07T07:50:53.141Z,2996.00
2018-07-07T07:51:53.145Z,3004.00
2018-07-07T07:52:53.190Z,3012.00
2018-07-07T07:53:53.100Z,3012.00
2018-07-07T07:54:53.090Z,2936.00
2018-07-07T07:55:53.106Z,2976.00
2018-07-07T07:56:53.090Z,2980.00
2018-07-07T07:57:53.096Z,2960.00
2018-07-07T07:58:53.073Z,2984.00
2018-07-07T07:59:53.032Z,2964.00
2018-07-07T08:00:53.035Z,2960.00
2018-07-07T08:01:53.032Z,2944.00
2018-07-07T08:02:53.000Z,2964.00
2018-07-07T08:03:52.988Z,2968.00
2018-07-07T08:04:53.029Z,2972.00
2018-07-07T08:05:52.967Z,2952.00
2018-07-07T08:06:52.996Z,2972.00
2018-07-07T08:07:52.950Z,2972.00
2018-07-07T08:08:52.968Z,2988.00
2018-07-07T08:09:52.921Z,2988.00
2018-07-07T08:10:52.917Z,2320.00
2018-07-07T08:11:52.921Z,3120.00
2018-07-07T08:12:52.892Z,3000.00
2018-07-07T08:13:52.882Z,3028.00
2018-07-07T08:14:52.872Z,3028.00
2018-07-07T08:15:52.859Z,3020.00
2018-07-07T08:16:52.861Z,3008.00
2018-07-07T08:17:52.855Z,2980.00
2018-07-07T08:18:52.830Z,2976.00
2018-07-07T08:19:52.808Z,2972.00
2018-07-07T08:20:52.802Z,2968.00
2018-07-07T08:21:52.790Z,2940.00
2018-07-07T08:22:52.841Z,2932.00
2018-07-07T08:23:52.766Z,2952.00
2018-07-07T08:24:52.753Z,2964.00
2018-07-07T08:25:52.757Z,2956.00
2018-07-07T08:26:52.736Z,2956.00
2018-07-07T08:27:52.749Z,2944.00
2018-07-07T08:28:52.708Z,2948.00
2018-07-07T08:29:52.698Z,2968.00
2018-07-07T08:30:52.688Z,2992.00
2018-07-07T08:31:52.679Z,2996.00
2018-07-07T08:32:52.693Z,2996.00
2018-07-07T08:33:52.657Z,3012.00
2018-07-07T08:34:52.643Z,3028.00
2018-07-07T08:35:52.634Z,3020.00
2018-07-07T08:36:52.632Z,3028.00
2018-07-07T08:37:52.636Z,3032.00
2018-07-07T08:38:52.606Z,3048.00
2018-07-07T08:39:52.588Z,3044.00
2018-07-07T08:40:52.577Z,3056.00
2018-07-07T08:41:52.682Z,3020.00
2018-07-07T08:42:52.581Z,3016.00
2018-07-07T08:43:52.553Z,3048.00
2018-07-07T08:44:52.537Z,3108.00
2018-07-07T08:45:52.528Z,3200.00
2018-07-07T08:46:52.519Z,3224.00
2018-07-07T08:47:52.528Z,3240.00
2018-07-07T08:48:52.498Z,3272.00
2018-07-07T08:49:52.483Z,3320.00
2018-07-07T08:50:52.479Z,3416.00
2018-07-07T08:51:52.457Z,3544.00
2018-07-07T08:52:52.467Z,3604.00
2018-07-07T08:53:52.443Z,3580.00
2018-07-07T08:54:52.423Z,3576.00
2018-07-07T08:55:52.412Z,3568.00
2018-07-07T08:56:52.399Z,3600.00
2018-07-07T08:57:52.418Z,3688.00
2018-07-07T08:58:52.444Z,3680.00
2018-07-07T08:59:52.367Z,3608.00
2018-07-07T09:00:52.357Z,3580.00
2018-07-07T09:01:52.348Z,3536.00
2018-07-07T09:02:52.356Z,4008.00
2018-07-07T09:03:52.321Z,3824.00
2018-07-07T09:04:52.315Z,3836.00
2018-07-07T09:05:52.299Z,3936.00
2018-07-07T09:06:52.294Z,3936.00
2018-07-07T09:07:52.300Z,4540.00
2018-07-07T09:08:52.266Z,3828.00
2018-07-07T09:09:52.258Z,3656.00
2018-07-07T09:10:52.244Z,3544.00
2018-07-07T09:11:52.234Z,3576.00
2018-07-07T09:12:52.249Z,3564.00
2018-07-07T09:13:52.213Z,3604.00
2018-07-07T09:14:52.218Z,3540.00
2018-07-07T09:15:52.197Z,3548.00
2018-07-07T09:16:52.183Z,3520.00
2018-07-07T09:17:52.193Z,3460.00
2018-07-07T09:18:52.170Z,3284.00
2018-07-07T09:19:52.185Z,3240.00
2018-07-07T09:20:52.136Z,3208.00
2018-07-07T09:21:52.122Z,3204.00
2018-07-07T09:22:52.135Z,3292.00
2018-07-07T09:23:52.101Z,3336.00
2018-07-07T09:24:52.095Z,3320.00
2018-07-07T09:25:52.081Z,3256.00
2018-07-07T09:26:52.082Z,3192.00
2018-07-07T09:27:52.082Z,3264.00
2018-07-07T09:28:52.045Z,3308.00
2018-07-07T09:29:52.036Z,3348.00
2018-07-07T09:30:52.088Z,3328.00
2018-07-07T09:31:52.018Z,3332.00
2018-07-07T09:32:52.042Z,3360.00
2018-07-07T09:33:51.989Z,3356.00
2018-07-07T09:34:51.977Z,3348.00
2018-07-07T09:35:51.970Z,3332.00
2018-07-07T09:36:51.959Z,3304.00
2018-07-07T09:37:51.967Z,3304.00
2018-07-07T09:38:52.022Z,3236.00
2018-07-07T09:39:51.923Z,3296.00
2018-07-07T09:40:51.911Z,3288.00
2018-07-07T09:41:51.902Z,3280.00
2018-07-07T09:42:51.915Z,3304.00
2018-07-07T09:43:51.878Z,3336.00
2018-07-07T09:44:51.873Z,3348.00
2018-07-07T09:45:51.872Z,3368.00
2018-07-07T09:46:51.846Z,3372.00
2018-07-07T09:47:51.858Z,3388.00
2018-07-07T09:48:51.822Z,3352.00
2018-07-07T09:49:51.812Z,3288.00
2018-07-07T09:50:51.802Z,3264.00
2018-07-07T09:51:51.791Z,3292.00
2018-07-07T09:52:51.804Z,3264.00
2018-07-07T09:53:51.774Z,3276.00
2018-07-07T09:54:51.764Z,3288.00
2018-07-07T09:55:51.752Z,3280.00
2018-07-07T09:56:51.740Z,3312.00
2018-07-07T09:57:51.729Z,3384.00
2018-07-07T09:58:51.753Z,3432.00
2018-07-07T09:59:51.717Z,3416.00
2018-07-07T10:00:51.692Z,3348.00
2018-07-07T10:01:51.736Z,3280.00
2018-07-07T10:02:51.674Z,3296.00
2018-07-07T10:03:51.688Z,3312.00
2018-07-07T10:04:51.660Z,3264.00
2018-07-07T10:05:51.644Z,3252.00
2018-07-07T10:06:51.629Z,3272.00
2018-07-07T10:07:51.617Z,3264.00
2018-07-07T10:08:51.628Z,3224.00
2018-07-07T10:09:51.592Z,3208.00
2018-07-07T10:10:51.580Z,3212.00
2018-07-07T10:11:51.587Z,3244.00
2018-07-07T10:12:51.560Z,3240.00
2018-07-07T10:13:51.577Z,3256.00
2018-07-07T10:14:51.537Z,3280.00
2018-07-07T10:15:51.526Z,3288.00
2018-07-07T10:16:51.517Z,3276.00
2018-07-07T10:17:51.516Z,3276.00
2018-07-07T10:18:51.513Z,3256.00
2018-07-07T10:19:51.485Z,3264.00
2018-07-07T10:20:51.470Z,3288.00
2018-07-07T10:21:51.459Z,3292.00
2018-07-07T10:22:51.449Z,3304.00
2018-07-07T10:23:51.460Z,3304.00
2018-07-07T10:24:51.432Z,3288.00
2018-07-07T10:25:51.428Z,3300.00
2018-07-07T10:26:51.406Z,3324.00
2018-07-07T10:27:51.392Z,3312.00
2018-07-07T10:28:51.406Z,3300.00
2018-07-07T10:29:51.369Z,3316.00
2018-07-07T10:30:51.376Z,3280.00
2018-07-07T10:31:51.352Z,3284.00
2018-07-07T10:32:51.342Z,3264.00
2018-07-07T10:33:51.353Z,3168.00
2018-07-07T10:34:51.318Z,3256.00
2018-07-07T10:35:51.304Z,3280.00
2018-07-07T10:36:51.294Z,3292.00
2018-07-07T10:37:51.283Z,3336.00
2018-07-07T10:38:51.299Z,3424.00
2018-07-07T10:39:51.264Z,3420.00
2018-07-07T10:40:51.268Z,3376.00
2018-07-07T10:41:51.237Z,3408.00
2018-07-07T10:42:51.226Z,3404.00
2018-07-07T10:43:51.244Z,3372.00
2018-07-07T10:44:51.211Z,3376.00
2018-07-07T10:45:51.335Z,3388.00
2018-07-07T10:46:51.199Z,3384.00
2018-07-07T10:47:51.173Z,3396.00
2018-07-07T10:48:51.200Z,3448.00
2018-07-07T10:49:51.160Z,3496.00
2018-07-07T10:50:51.140Z,3528.00
2018-07-07T10:51:51.138Z,3624.00
2018-07-07T10:52:51.118Z,3708.00
2018-07-07T10:53:51.128Z,3704.00
2018-07-07T10:54:51.099Z,3660.00
2018-07-07T10:55:51.084Z,3600.00
2018-07-07T10:56:51.070Z,3576.00
2018-07-07T10:57:51.060Z,3568.00
2018-07-07T10:58:51.118Z,3568.00
2018-07-07T10:59:51.043Z,3556.00
2018-07-07T11:00:51.026Z,3596.00
2018-07-07T11:01:51.027Z,3628.00
2018-07-07T11:02:51.006Z,3676.00
2018-07-07T11:03:51.027Z,3660.00
2018-07-07T11:04:50.982Z,3600.00
2018-07-07T11:05:50.972Z,3576.00
2018-07-07T11:06:50.973Z,3576.00
2018-07-07T11:07:50.954Z,3592.00
2018-07-07T11:08:50.968Z,3580.00
2018-07-07T11:09:50.939Z,3640.00
2018-07-07T11:10:50.916Z,3644.00
2018-07-07T11:11:50.994Z,3676.00
2018-07-07T11:12:50.895Z,2952.00
2018-07-07T11:13:50.915Z,3172.00
2018-07-07T11:14:50.872Z,3776.00
2018-07-07T11:15:50.862Z,3784.00
2018-07-07T11:16:50.850Z,3636.00
2018-07-07T11:17:50.839Z,3616.00
2018-07-07T11:18:50.852Z,3656.00
2018-07-07T11:19:50.829Z,3688.00
2018-07-07T11:20:50.806Z,3704.00
2018-07-07T11:21:50.795Z,3708.00
2018-07-07T11:22:50.784Z,3776.00
2018-07-07T11:23:50.796Z,3832.00
2018-07-07T11:24:50.763Z,3868.00
2018-07-07T11:25:50.751Z,3912.00
2018-07-07T11:26:50.741Z,3892.00
2018-07-07T11:27:50.728Z,3968.00
2018-07-07T11:28:50.742Z,4004.00
2018-07-07T11:29:50.756Z,4064.00
2018-07-07T11:30:50.695Z,3724.00
2018-07-07T11:31:50.687Z,4092.00
2018-07-07T11:32:50.674Z,4116.00
2018-07-07T11:33:50.686Z,4144.00
2018-07-07T11:34:50.652Z,4884.00
2018-07-07T11:35:50.642Z,4976.00
2018-07-07T11:36:50.652Z,5008.00
2018-07-07T11:37:50.620Z,5092.00
2018-07-07T11:38:50.610Z,5224.00
2018-07-07T11:39:50.621Z,5344.00
2018-07-07T11:40:50.586Z,5480.00
2018-07-07T11:41:50.575Z,5584.00
2018-07-07T11:42:50.563Z,5736.00
2018-07-07T11:43:50.555Z,5828.00
2018-07-07T11:44:50.567Z,5960.00
2018-07-07T11:45:50.534Z,6080.00
2018-07-07T11:46:50.521Z,6168.00
2018-07-07T11:47:50.508Z,6276.00
2018-07-07T11:48:50.500Z,6352.00
2018-07-07T11:49:50.512Z,6476.00
2018-07-07T11:50:50.477Z,6616.00
2018-07-07T11:51:50.464Z,6832.00
2018-07-07T11:52:50.455Z,7016.00
2018-07-07T11:53:50.445Z,7260.00
2018-07-07T11:54:50.459Z,7420.00
2018-07-07T11:55:50.423Z,7528.00
2018-07-07T11:56:50.415Z,7588.00
2018-07-07T11:57:50.400Z,7656.00
2018-07-07T11:58:50.390Z,7864.00
2018-07-07T11:59:50.401Z,7960.00
2018-07-07T12:00:50.366Z,8036.00
2018-07-07T12:01:50.389Z,8036.00
2018-07-07T12:02:50.345Z,8104.00
2018-07-07T12:03:50.334Z,8004.00
2018-07-07T12:04:50.383Z,8216.00
2018-07-07T12:05:50.316Z,8344.00
2018-07-07T12:06:50.301Z,8476.00
2018-07-07T12:08:00.713Z,8576.00
2018-07-07T12:08:50.282Z,8708.00
2018-07-07T12:09:50.296Z,8836.00
2018-07-07T12:10:50.260Z,8960.00
2018-07-07T12:11:50.267Z,9008.00
2018-07-07T12:12:50.239Z,9160.00
2018-07-07T12:13:50.228Z,9248.00
2018-07-07T12:14:50.239Z,9400.00
2018-07-07T12:15:50.206Z,9480.00
2018-07-07T12:16:50.195Z,9608.00
2018-07-07T12:17:50.191Z,9732.00
2018-07-07T12:18:50.173Z,9864.00
2018-07-07T12:19:50.185Z,10060.00
2018-07-07T12:20:50.159Z,10264.00
2018-07-07T12:21:50.140Z,10468.00
2018-07-07T12:22:50.128Z,10936.00
2018-07-07T12:23:50.117Z,11204.00
2018-07-07T12:24:50.137Z,10952.00
2018-07-07T12:25:50.097Z,11076.00
2018-07-07T12:26:50.083Z,11184.00